Pagrindinis puslapis
METAR-TAF:

METAR-TAF

Oro uostai :

Monrealis-Trudeau, Kvebekas, Kanada

platuma: 45-28N, ilguma: 073-45W, Aukštis: 31 m

Dabartinis oras

Ataskaita buvo paskelbta 35 minutes, ne 16:00 UTC
Vėjas 9 kt iš Pietų/Pietvakarių
Temperatūra 21°C
Drėgmė 64%
Slėgis 1022 hPa
Matomumas: 48.3 km
Mažai debesys ne aukštis 16000 ft
Išsisklaidę debesys ne aukštis 25000 ft

METAR: CYUL 201600Z 20009KT 30SM FEW160 SCT250 21/14 A3017 RMK AC1CI3 AC TR CONTRAILS SLP217 DENSITY ALT 600FT

Laikas: 12:35 (16:35 UTC)

Prognozė

Ataskaita buvo paskelbta 1 valandą ir 55 minutes, ne 14:40 UTC
Prognozė galioja nuo 20 metu 15 UTC su 21 metu 12 UTC
Vėjas 10 kt iš Pietvakarių
Matomumas: 10 km
Su prošvaistėmis ne aukštis 25000 ft
Nuo 21 metu 0300 UTC
Vėjas 8 kt iš Vakarų/Pietvakarių
Matomumas: 10 km
Išsisklaidę debesys ne aukštis 5000 ft

TAF: CYUL 201440Z 2015/2112 22010KT P6SM BKN250 FM210300 24008KT P6SM SCT050 RMK NXT FCST BY 201800Z

Orai ataskaitas ir orų prognozės (METAR, TAF).

turimą stotys yra geltonos ir raudonos taškus žemėlapyje.

Perkelti pele per norėdami pamatyti stoties vardą.

Tada spustelėkite, norėdami matyti oro stebėjimo ir prognozės.

Norėdami pakeisti žemėlapį: spustelėkite ant žalios mygtukų su juodo kryžiaus žemyn,; žalią mygtuką su brūkšneliu, jei norite nutolinti; arba žalių rodyklių gretimoms žemėlapius.


METAR-TAF: